sensor_id;sensor_type;location;lat;lon;timestamp;temperature;humidity
48007;DHT22;33771;48.180;11.400;2024-03-23T00:53:32;8.00;99.90
48007;DHT22;33771;48.180;11.400;2024-03-23T00:55:59;8.00;99.90
48007;DHT22;33771;48.180;11.400;2024-03-23T00:58:24;8.00;99.90
48007;DHT22;33771;48.180;11.400;2024-03-23T01:00:50;8.10;99.90
48007;DHT22;33771;48.180;11.400;2024-03-23T01:03:15;8.10;99.90
48007;DHT22;33771;48.180;11.400;2024-03-23T01:05:41;8.10;99.90
48007;DHT22;33771;48.180;11.400;2024-03-23T01:08:06;8.10;99.90
48007;DHT22;33771;48.180;11.400;2024-03-23T01:10:32;8.20;99.90
48007;DHT22;33771;48.180;11.400;2024-03-23T01:12:57;8.20;99.90
48007;DHT22;33771;48.180;11.400;2024-03-23T01:15:23;8.30;99.90
48007;DHT22;33771;48.180;11.400;2024-03-23T01:17:48;8.40;99.90
48007;DHT22;33771;48.180;11.400;2024-03-23T01:20:14;8.50;99.90
48007;DHT22;33771;48.180;11.400;2024-03-23T01:22:40;8.60;99.90
48007;DHT22;33771;48.180;11.400;2024-03-23T01:25:05;8.70;99.90
48007;DHT22;33771;48.180;11.400;2024-03-23T01:27:31;8.80;99.90
48007;DHT22;33771;48.180;11.400;2024-03-23T01:29:56;8.90;99.90
48007;DHT22;33771;48.180;11.400;2024-03-23T01:32:22;8.90;99.90
48007;DHT22;33771;48.180;11.400;2024-03-23T01:34:47;8.90;99.90
48007;DHT22;33771;48.180;11.400;2024-03-23T01:37:13;9.00;99.90
48007;DHT22;33771;48.180;11.400;2024-03-23T01:39:39;9.00;99.90
48007;DHT22;33771;48.180;11.400;2024-03-23T01:42:04;9.00;99.90
48007;DHT22;33771;48.180;11.400;2024-03-23T01:44:30;9.00;99.90
48007;DHT22;33771;48.180;11.400;2024-03-23T01:46:55;9.10;99.90
48007;DHT22;33771;48.180;11.400;2024-03-23T01:49:21;9.10;99.90
48007;DHT22;33771;48.180;11.400;2024-03-23T01:51:46;9.10;99.90
48007;DHT22;33771;48.180;11.400;2024-03-23T01:54:12;9.10;99.90
48007;DHT22;33771;48.180;11.400;2024-03-23T01:56:38;9.10;99.90
48007;DHT22;33771;48.180;11.400;2024-03-23T01:59:07;9.10;99.90
48007;DHT22;33771;48.180;11.400;2024-03-23T02:01:33;9.10;99.90
48007;DHT22;33771;48.180;11.400;2024-03-23T02:04:01;9.10;99.90
48007;DHT22;33771;48.180;11.400;2024-03-23T02:06:27;9.10;99.90
48007;DHT22;33771;48.180;11.400;2024-03-23T02:08:54;9.10;99.90
48007;DHT22;33771;48.180;11.400;2024-03-23T02:11:19;9.10;99.90
48007;DHT22;33771;48.180;11.400;2024-03-23T02:13:45;9.10;99.90
48007;DHT22;33771;48.180;11.400;2024-03-23T02:16:11;9.10;99.90
48007;DHT22;33771;48.180;11.400;2024-03-23T02:18:36;9.10;99.90
48007;DHT22;33771;48.180;11.400;2024-03-23T02:21:02;9.10;99.90
48007;DHT22;33771;48.180;11.400;2024-03-23T02:23:28;9.10;99.90
48007;DHT22;33771;48.180;11.400;2024-03-23T02:25:54;9.10;99.90
48007;DHT22;33771;48.180;11.400;2024-03-23T02:28:20;9.10;99.90
48007;DHT22;33771;48.180;11.400;2024-03-23T02:30:46;9.10;99.90
48007;DHT22;33771;48.180;11.400;2024-03-23T02:33:11;9.10;99.90
48007;DHT22;33771;48.180;11.400;2024-03-23T02:35:37;9.10;99.90
48007;DHT22;33771;48.180;11.400;2024-03-23T02:38:02;9.20;99.90
48007;DHT22;33771;48.180;11.400;2024-03-23T02:40:28;9.20;99.90
48007;DHT22;33771;48.180;11.400;2024-03-23T02:42:54;9.20;99.90
48007;DHT22;33771;48.180;11.400;2024-03-23T02:45:19;9.20;99.90
48007;DHT22;33771;48.180;11.400;2024-03-23T02:47:45;9.20;99.90
48007;DHT22;33771;48.180;11.400;2024-03-23T02:50:11;9.20;99.90
48007;DHT22;33771;48.180;11.400;2024-03-23T02:52:36;9.30;99.90
48007;DHT22;33771;48.180;11.400;2024-03-23T02:55:03;9.20;99.90
48007;DHT22;33771;48.180;11.400;2024-03-23T02:57:28;9.30;99.90
48007;DHT22;33771;48.180;11.400;2024-03-23T02:59:54;9.30;99.90
48007;DHT22;33771;48.180;11.400;2024-03-23T03:02:20;9.30;99.90
48007;DHT22;33771;48.180;11.400;2024-03-23T03:04:46;9.30;99.90
48007;DHT22;33771;48.180;11.400;2024-03-23T03:07:12;9.30;99.90
48007;DHT22;33771;48.180;11.400;2024-03-23T03:09:38;9.30;99.90
48007;DHT22;33771;48.180;11.400;2024-03-23T03:12:07;9.30;99.90
48007;DHT22;33771;48.180;11.400;2024-03-23T03:14:33;9.30;99.90
48007;DHT22;33771;48.180;11.400;2024-03-23T03:16:59;9.30;99.90
48007;DHT22;33771;48.180;11.400;2024-03-23T03:19:25;9.30;99.90
48007;DHT22;33771;48.180;11.400;2024-03-23T03:21:50;9.30;99.90
48007;DHT22;33771;48.180;11.400;2024-03-23T03:24:16;9.30;99.90
48007;DHT22;33771;48.180;11.400;2024-03-23T03:26:42;9.30;99.90
48007;DHT22;33771;48.180;11.400;2024-03-23T03:29:08;9.30;99.90
48007;DHT22;33771;48.180;11.400;2024-03-23T03:31:33;9.30;99.90
48007;DHT22;33771;48.180;11.400;2024-03-23T03:33:59;9.20;99.90
48007;DHT22;33771;48.180;11.400;2024-03-23T03:36:24;9.20;99.90
48007;DHT22;33771;48.180;11.400;2024-03-23T03:38:50;9.20;99.90
48007;DHT22;33771;48.180;11.400;2024-03-23T03:41:15;9.10;99.90
48007;DHT22;33771;48.180;11.400;2024-03-23T03:43:41;9.10;99.90
48007;DHT22;33771;48.180;11.400;2024-03-23T03:46:07;9.10;99.90
48007;DHT22;33771;48.180;11.400;2024-03-23T03:48:36;9.10;99.90
48007;DHT22;33771;48.180;11.400;2024-03-23T03:51:02;9.10;99.90
48007;DHT22;33771;48.180;11.400;2024-03-23T03:53:27;9.10;99.90
48007;DHT22;33771;48.180;11.400;2024-03-23T03:55:53;9.10;99.90
48007;DHT22;33771;48.180;11.400;2024-03-23T03:58:18;9.10;99.90
48007;DHT22;33771;48.180;11.400;2024-03-23T04:00:44;9.10;99.90
48007;DHT22;33771;48.180;11.400;2024-03-23T04:03:09;9.10;99.90
48007;DHT22;33771;48.180;11.400;2024-03-23T04:05:35;9.10;99.90
48007;DHT22;33771;48.180;11.400;2024-03-23T04:08:01;9.20;99.90
48007;DHT22;33771;48.180;11.400;2024-03-23T04:10:27;9.20;99.90
48007;DHT22;33771;48.180;11.400;2024-03-23T04:12:53;9.30;99.90
48007;DHT22;33771;48.180;11.400;2024-03-23T04:15:19;9.40;99.90
48007;DHT22;33771;48.180;11.400;2024-03-23T04:17:45;9.40;99.90
48007;DHT22;33771;48.180;11.400;2024-03-23T04:20:11;9.40;99.90
48007;DHT22;33771;48.180;11.400;2024-03-23T04:22:39;9.40;99.90
48007;DHT22;33771;48.180;11.400;2024-03-23T04:25:04;9.40;99.90
48007;DHT22;33771;48.180;11.400;2024-03-23T04:27:35;9.40;99.90
48007;DHT22;33771;48.180;11.400;2024-03-23T04:30:01;9.40;99.90
48007;DHT22;33771;48.180;11.400;2024-03-23T04:32:27;9.40;99.90
48007;DHT22;33771;48.180;11.400;2024-03-23T04:34:53;9.30;99.90
48007;DHT22;33771;48.180;11.400;2024-03-23T04:37:20;9.30;99.90
48007;DHT22;33771;48.180;11.400;2024-03-23T04:39:45;9.20;99.90
48007;DHT22;33771;48.180;11.400;2024-03-23T04:42:11;9.30;99.90
48007;DHT22;33771;48.180;11.400;2024-03-23T04:44:37;9.20;99.90
48007;DHT22;33771;48.180;11.400;2024-03-23T04:47:03;9.20;99.90
48007;DHT22;33771;48.180;11.400;2024-03-23T04:49:28;9.20;99.90
48007;DHT22;33771;48.180;11.400;2024-03-23T04:51:54;9.30;99.90
48007;DHT22;33771;48.180;11.400;2024-03-23T04:54:20;9.20;99.90
48007;DHT22;33771;48.180;11.400;2024-03-23T04:56:45;9.30;99.90
48007;DHT22;33771;48.180;11.400;2024-03-23T04:59:11;9.20;99.90
48007;DHT22;33771;48.180;11.400;2024-03-23T05:01:37;9.20;99.90
48007;DHT22;33771;48.180;11.400;2024-03-23T05:04:04;9.20;99.90
48007;DHT22;33771;48.180;11.400;2024-03-23T05:06:30;9.20;99.90
48007;DHT22;33771;48.180;11.400;2024-03-23T05:08:56;9.10;99.90
48007;DHT22;33771;48.180;11.400;2024-03-23T05:11:21;9.10;99.90
48007;DHT22;33771;48.180;11.400;2024-03-23T05:13:47;9.10;99.90
48007;DHT22;33771;48.180;11.400;2024-03-23T05:16:13;9.00;99.90
48007;DHT22;33771;48.180;11.400;2024-03-23T05:18:38;9.00;99.90
48007;DHT22;33771;48.180;11.400;2024-03-23T05:21:04;8.90;99.90
48007;DHT22;33771;48.180;11.400;2024-03-23T05:23:30;8.90;99.90
48007;DHT22;33771;48.180;11.400;2024-03-23T05:25:55;8.90;99.90
48007;DHT22;33771;48.180;11.400;2024-03-23T05:28:24;8.90;99.90
48007;DHT22;33771;48.180;11.400;2024-03-23T05:30:53;8.90;99.90
48007;DHT22;33771;48.180;11.400;2024-03-23T05:33:20;9.00;99.90
48007;DHT22;33771;48.180;11.400;2024-03-23T05:35:46;9.00;99.90
48007;DHT22;33771;48.180;11.400;2024-03-23T05:38:13;9.10;99.90
48007;DHT22;33771;48.180;11.400;2024-03-23T05:40:39;9.30;99.90
48007;DHT22;33771;48.180;11.400;2024-03-23T05:43:06;9.50;99.90
48007;DHT22;33771;48.180;11.400;2024-03-23T05:45:32;9.70;99.90
48007;DHT22;33771;48.180;11.400;2024-03-23T05:47:57;9.90;99.90
48007;DHT22;33771;48.180;11.400;2024-03-23T05:50:23;10.10;99.90
48007;DHT22;33771;48.180;11.400;2024-03-23T05:52:49;10.20;99.90
48007;DHT22;33771;48.180;11.400;2024-03-23T05:55:15;10.30;99.90
48007;DHT22;33771;48.180;11.400;2024-03-23T05:57:41;10.40;99.90
48007;DHT22;33771;48.180;11.400;2024-03-23T06:00:07;10.50;99.90
48007;DHT22;33771;48.180;11.400;2024-03-23T06:02:42;10.60;99.90
48007;DHT22;33771;48.180;11.400;2024-03-23T06:05:12;10.80;99.90
48007;DHT22;33771;48.180;11.400;2024-03-23T06:07:38;10.90;99.90
48007;DHT22;33771;48.180;11.400;2024-03-23T06:10:05;11.00;99.90
48007;DHT22;33771;48.180;11.400;2024-03-23T06:12:31;11.10;99.90
48007;DHT22;33771;48.180;11.400;2024-03-23T06:14:57;11.20;99.90
48007;DHT22;33771;48.180;11.400;2024-03-23T06:17:22;11.30;99.90
48007;DHT22;33771;48.180;11.400;2024-03-23T06:19:48;11.40;99.90
48007;DHT22;33771;48.180;11.400;2024-03-23T06:22:14;11.60;99.90
48007;DHT22;33771;48.180;11.400;2024-03-23T06:24:40;11.60;99.90
48007;DHT22;33771;48.180;11.400;2024-03-23T06:27:05;11.70;99.90
48007;DHT22;33771;48.180;11.400;2024-03-23T06:29:31;11.80;99.90
48007;DHT22;33771;48.180;11.400;2024-03-23T06:31:57;11.80;99.90
48007;DHT22;33771;48.180;11.400;2024-03-23T06:34:23;11.90;99.90
48007;DHT22;33771;48.180;11.400;2024-03-23T06:36:49;11.90;99.90
48007;DHT22;33771;48.180;11.400;2024-03-23T06:39:15;12.00;99.90
48007;DHT22;33771;48.180;11.400;2024-03-23T06:41:53;12.00;99.90
48007;DHT22;33771;48.180;11.400;2024-03-23T06:44:20;12.20;99.90
48007;DHT22;33771;48.180;11.400;2024-03-23T06:46:46;12.20;99.90
48007;DHT22;33771;48.180;11.400;2024-03-23T06:49:11;12.30;99.90
48007;DHT22;33771;48.180;11.400;2024-03-23T06:51:37;12.40;99.90
48007;DHT22;33771;48.180;11.400;2024-03-23T06:54:03;12.50;99.90
48007;DHT22;33771;48.180;11.400;2024-03-23T06:56:29;12.60;99.90
48007;DHT22;33771;48.180;11.400;2024-03-23T06:58:56;12.80;99.90
48007;DHT22;33771;48.180;11.400;2024-03-23T07:01:21;13.00;99.90
48007;DHT22;33771;48.180;11.400;2024-03-23T07:03:47;13.10;99.90
48007;DHT22;33771;48.180;11.400;2024-03-23T07:06:12;13.20;99.90
48007;DHT22;33771;48.180;11.400;2024-03-23T07:08:38;13.40;99.90
48007;DHT22;33771;48.180;11.400;2024-03-23T07:11:03;13.50;99.90
48007;DHT22;33771;48.180;11.400;2024-03-23T07:13:30;13.60;99.90
48007;DHT22;33771;48.180;11.400;2024-03-23T07:15:55;13.60;99.90
48007;DHT22;33771;48.180;11.400;2024-03-23T07:18:21;13.70;99.90
48007;DHT22;33771;48.180;11.400;2024-03-23T07:20:57;13.70;99.90
48007;DHT22;33771;48.180;11.400;2024-03-23T07:23:26;13.70;99.90
48007;DHT22;33771;48.180;11.400;2024-03-23T07:26:01;13.70;99.90
48007;DHT22;33771;48.180;11.400;2024-03-23T07:28:27;13.80;99.90
48007;DHT22;33771;48.180;11.400;2024-03-23T07:31:09;13.80;99.90
48007;DHT22;33771;48.180;11.400;2024-03-23T07:33:45;13.80;99.90
48007;DHT22;33771;48.180;11.400;2024-03-23T07:36:11;13.50;99.90
48007;DHT22;33771;48.180;11.400;2024-03-23T07:38:37;13.30;99.90
48007;DHT22;33771;48.180;11.400;2024-03-23T07:41:09;12.90;99.90
48007;DHT22;33771;48.180;11.400;2024-03-23T07:43:36;12.60;99.90
48007;DHT22;33771;48.180;11.400;2024-03-23T07:46:02;12.30;99.90
48007;DHT22;33771;48.180;11.400;2024-03-23T07:48:29;12.10;99.90
48007;DHT22;33771;48.180;11.400;2024-03-23T07:51:03;11.80;99.90
48007;DHT22;33771;48.180;11.400;2024-03-23T07:53:30;11.60;99.90
48007;DHT22;33771;48.180;11.400;2024-03-23T07:56:09;11.40;99.90
48007;DHT22;33771;48.180;11.400;2024-03-23T07:58:36;11.30;99.90
48007;DHT22;33771;48.180;11.400;2024-03-23T08:01:10;11.20;99.90
48007;DHT22;33771;48.180;11.400;2024-03-23T08:03:36;11.10;99.90
48007;DHT22;33771;48.180;11.400;2024-03-23T08:08:40;11.00;99.90
48007;DHT22;33771;48.180;11.400;2024-03-23T08:11:06;10.90;99.90
48007;DHT22;33771;48.180;11.400;2024-03-23T08:13:32;10.70;99.90
48007;DHT22;33771;48.180;11.400;2024-03-23T08:15:58;10.70;99.90
48007;DHT22;33771;48.180;11.400;2024-03-23T08:18:24;10.60;99.90
48007;DHT22;33771;48.180;11.400;2024-03-23T08:21:00;10.50;99.90
48007;DHT22;33771;48.180;11.400;2024-03-23T08:23:27;10.30;99.90
48007;DHT22;33771;48.180;11.400;2024-03-23T08:26:00;10.10;99.90
48007;DHT22;33771;48.180;11.400;2024-03-23T08:28:27;9.90;99.90
48007;DHT22;33771;48.180;11.400;2024-03-23T08:30:54;9.70;99.90
48007;DHT22;33771;48.180;11.400;2024-03-23T08:33:20;9.40;99.90
48007;DHT22;33771;48.180;11.400;2024-03-23T08:35:56;9.40;99.90
48007;DHT22;33771;48.180;11.400;2024-03-23T08:38:26;9.20;99.90
48007;DHT22;33771;48.180;11.400;2024-03-23T08:40:59;9.10;99.90
48007;DHT22;33771;48.180;11.400;2024-03-23T08:43:25;9.10;99.90
48007;DHT22;33771;48.180;11.400;2024-03-23T08:45:51;9.00;99.90
48007;DHT22;33771;48.180;11.400;2024-03-23T08:48:17;9.00;99.90
48007;DHT22;33771;48.180;11.400;2024-03-23T08:50:43;9.00;99.90
48007;DHT22;33771;48.180;11.400;2024-03-23T08:53:09;8.90;99.90
48007;DHT22;33771;48.180;11.400;2024-03-23T08:55:34;8.90;99.90
48007;DHT22;33771;48.180;11.400;2024-03-23T08:58:01;8.80;99.90
48007;DHT22;33771;48.180;11.400;2024-03-23T09:00:26;8.80;99.90
48007;DHT22;33771;48.180;11.400;2024-03-23T09:02:52;8.80;99.90
48007;DHT22;33771;48.180;11.400;2024-03-23T09:05:19;8.70;99.90
48007;DHT22;33771;48.180;11.400;2024-03-23T09:07:44;8.70;99.90
48007;DHT22;33771;48.180;11.400;2024-03-23T09:10:10;8.70;99.90
48007;DHT22;33771;48.180;11.400;2024-03-23T09:12:35;8.70;99.90
48007;DHT22;33771;48.180;11.400;2024-03-23T09:15:01;8.70;99.90
48007;DHT22;33771;48.180;11.400;2024-03-23T09:17:26;8.70;99.90
48007;DHT22;33771;48.180;11.400;2024-03-23T09:19:52;8.70;99.90
48007;DHT22;33771;48.180;11.400;2024-03-23T09:22:17;8.70;99.90
48007;DHT22;33771;48.180;11.400;2024-03-23T09:24:43;8.70;99.90
48007;DHT22;33771;48.180;11.400;2024-03-23T09:27:08;8.70;99.90
48007;DHT22;33771;48.180;11.400;2024-03-23T09:29:34;8.70;99.90
48007;DHT22;33771;48.180;11.400;2024-03-23T09:31:59;8.70;99.90
48007;DHT22;33771;48.180;11.400;2024-03-23T09:34:25;8.70;99.90
48007;DHT22;33771;48.180;11.400;2024-03-23T09:36:51;8.60;99.90
48007;DHT22;33771;48.180;11.400;2024-03-23T09:39:18;8.60;99.90
48007;DHT22;33771;48.180;11.400;2024-03-23T09:41:43;8.50;99.90
48007;DHT22;33771;48.180;11.400;2024-03-23T09:44:09;8.40;99.90
48007;DHT22;33771;48.180;11.400;2024-03-23T09:46:35;8.40;99.90
48007;DHT22;33771;48.180;11.400;2024-03-23T09:49:02;8.50;99.90
48007;DHT22;33771;48.180;11.400;2024-03-23T09:51:31;8.40;99.90
48007;DHT22;33771;48.180;11.400;2024-03-23T09:53:57;8.40;99.90
48007;DHT22;33771;48.180;11.400;2024-03-23T09:56:22;8.30;99.90
48007;DHT22;33771;48.180;11.400;2024-03-23T09:58:49;8.40;99.90
48007;DHT22;33771;48.180;11.400;2024-03-23T10:01:15;8.50;99.90
48007;DHT22;33771;48.180;11.400;2024-03-23T10:03:46;8.40;99.90
48007;DHT22;33771;48.180;11.400;2024-03-23T10:06:12;8.30;99.90
48007;DHT22;33771;48.180;11.400;2024-03-23T10:08:37;8.20;99.90
48007;DHT22;33771;48.180;11.400;2024-03-23T10:11:15;8.20;99.90
48007;DHT22;33771;48.180;11.400;2024-03-23T10:13:43;8.10;99.90
48007;DHT22;33771;48.180;11.400;2024-03-23T10:16:09;8.10;99.90
48007;DHT22;33771;48.180;11.400;2024-03-23T10:18:41;8.10;99.90
48007;DHT22;33771;48.180;11.400;2024-03-23T10:21:09;8.00;99.90
48007;DHT22;33771;48.180;11.400;2024-03-23T10:23:40;8.00;99.90
48007;DHT22;33771;48.180;11.400;2024-03-23T10:26:25;8.00;99.90
48007;DHT22;33771;48.180;11.400;2024-03-23T10:28:55;8.00;99.90
48007;DHT22;33771;48.180;11.400;2024-03-23T10:31:23;8.00;99.90
48007;DHT22;33771;48.180;11.400;2024-03-23T10:33:49;8.00;99.90
48007;DHT22;33771;48.180;11.400;2024-03-23T10:36:15;8.10;99.90
48007;DHT22;33771;48.180;11.400;2024-03-23T10:38:42;8.10;99.90
48007;DHT22;33771;48.180;11.400;2024-03-23T10:41:11;8.30;99.90
48007;DHT22;33771;48.180;11.400;2024-03-23T10:43:37;8.20;99.90
48007;DHT22;33771;48.180;11.400;2024-03-23T10:46:04;8.10;99.90
48007;DHT22;33771;48.180;11.400;2024-03-23T10:48:33;8.10;99.90
48007;DHT22;33771;48.180;11.400;2024-03-23T10:50:59;8.10;99.90
48007;DHT22;33771;48.180;11.400;2024-03-23T10:53:28;8.20;99.90
48007;DHT22;33771;48.180;11.400;2024-03-23T10:55:55;8.20;99.90
48007;DHT22;33771;48.180;11.400;2024-03-23T10:58:32;8.20;99.90
48007;DHT22;33771;48.180;11.400;2024-03-23T11:00:59;8.20;99.90
48007;DHT22;33771;48.180;11.400;2024-03-23T11:06:01;8.20;99.90
48007;DHT22;33771;48.180;11.400;2024-03-23T11:08:30;8.30;99.90
48007;DHT22;33771;48.180;11.400;2024-03-23T11:11:31;8.20;99.90
48007;DHT22;33771;48.180;11.400;2024-03-23T11:13:59;8.30;99.90
48007;DHT22;33771;48.180;11.400;2024-03-23T11:16:29;8.20;99.90
48007;DHT22;33771;48.180;11.400;2024-03-23T11:19:38;8.30;99.90
48007;DHT22;33771;48.180;11.400;2024-03-23T11:22:05;8.30;99.90
48007;DHT22;33771;48.180;11.400;2024-03-23T11:24:31;8.30;99.90
48007;DHT22;33771;48.180;11.400;2024-03-23T11:26:57;8.30;99.90
48007;DHT22;33771;48.180;11.400;2024-03-23T11:29:31;8.30;99.90
48007;DHT22;33771;48.180;11.400;2024-03-23T11:31:57;8.40;99.90
48007;DHT22;33771;48.180;11.400;2024-03-23T11:34:23;8.40;99.90
48007;DHT22;33771;48.180;11.400;2024-03-23T11:36:49;8.50;99.90
48007;DHT22;33771;48.180;11.400;2024-03-23T11:39:19;8.50;99.90
48007;DHT22;33771;48.180;11.400;2024-03-23T11:44:22;8.60;99.90
48007;DHT22;33771;48.180;11.400;2024-03-23T11:46:50;8.60;99.90
48007;DHT22;33771;48.180;11.400;2024-03-23T11:49:23;8.80;99.90
48007;DHT22;33771;48.180;11.400;2024-03-23T11:51:50;8.80;99.90
48007;DHT22;33771;48.180;11.400;2024-03-23T11:54:16;8.80;99.90
48007;DHT22;33771;48.180;11.400;2024-03-23T11:56:59;8.80;99.90
48007;DHT22;33771;48.180;11.400;2024-03-23T11:59:34;8.70;99.90
48007;DHT22;33771;48.180;11.400;2024-03-23T12:02:05;8.60;99.90
48007;DHT22;33771;48.180;11.400;2024-03-23T12:04:31;8.50;99.90
48007;DHT22;33771;48.180;11.400;2024-03-23T12:07:17;8.60;99.90
48007;DHT22;33771;48.180;11.400;2024-03-23T12:09:45;8.50;99.90
48007;DHT22;33771;48.180;11.400;2024-03-23T12:12:17;8.50;99.90
48007;DHT22;33771;48.180;11.400;2024-03-23T12:17:10;8.60;99.90
48007;DHT22;33771;48.180;11.400;2024-03-23T12:19:36;8.70;99.90
48007;DHT22;33771;48.180;11.400;2024-03-23T12:22:03;8.80;99.90
48007;DHT22;33771;48.180;11.400;2024-03-23T12:24:29;8.80;99.90
48007;DHT22;33771;48.180;11.400;2024-03-23T12:26:55;8.80;99.90
48007;DHT22;33771;48.180;11.400;2024-03-23T12:29:27;8.70;99.90
48007;DHT22;33771;48.180;11.400;2024-03-23T12:31:52;8.60;99.90
48007;DHT22;33771;48.180;11.400;2024-03-23T12:34:18;8.50;99.90
48007;DHT22;33771;48.180;11.400;2024-03-23T12:36:44;8.60;99.90
48007;DHT22;33771;48.180;11.400;2024-03-23T12:39:09;8.60;99.90
48007;DHT22;33771;48.180;11.400;2024-03-23T12:41:35;8.60;99.90
48007;DHT22;33771;48.180;11.400;2024-03-23T12:44:00;8.70;99.90
48007;DHT22;33771;48.180;11.400;2024-03-23T12:46:26;8.70;99.90
48007;DHT22;33771;48.180;11.400;2024-03-23T12:48:51;8.70;99.90
48007;DHT22;33771;48.180;11.400;2024-03-23T12:51:17;8.60;99.90
48007;DHT22;33771;48.180;11.400;2024-03-23T12:53:43;8.60;99.90
48007;DHT22;33771;48.180;11.400;2024-03-23T12:56:12;8.70;99.90
48007;DHT22;33771;48.180;11.400;2024-03-23T12:58:37;8.70;99.90
48007;DHT22;33771;48.180;11.400;2024-03-23T13:01:03;8.80;99.90
48007;DHT22;33771;48.180;11.400;2024-03-23T13:03:28;8.80;99.90
48007;DHT22;33771;48.180;11.400;2024-03-23T13:05:54;8.90;99.90
48007;DHT22;33771;48.180;11.400;2024-03-23T13:08:19;8.90;99.90
48007;DHT22;33771;48.180;11.400;2024-03-23T13:10:45;9.00;99.90
48007;DHT22;33771;48.180;11.400;2024-03-23T13:13:12;9.00;99.90
48007;DHT22;33771;48.180;11.400;2024-03-23T13:15:38;9.10;99.90
48007;DHT22;33771;48.180;11.400;2024-03-23T13:18:03;9.10;99.90
48007;DHT22;33771;48.180;11.400;2024-03-23T13:20:29;9.10;99.90
48007;DHT22;33771;48.180;11.400;2024-03-23T13:22:54;9.00;99.90
48007;DHT22;33771;48.180;11.400;2024-03-23T13:25:20;9.00;99.90
48007;DHT22;33771;48.180;11.400;2024-03-23T13:27:45;9.00;99.90
48007;DHT22;33771;48.180;11.400;2024-03-23T13:30:11;9.00;99.90
48007;DHT22;33771;48.180;11.400;2024-03-23T13:32:37;9.00;99.90
48007;DHT22;33771;48.180;11.400;2024-03-23T13:35:03;9.00;99.90
48007;DHT22;33771;48.180;11.400;2024-03-23T13:37:29;9.00;99.90
48007;DHT22;33771;48.180;11.400;2024-03-23T13:39:54;8.90;99.90
48007;DHT22;33771;48.180;11.400;2024-03-23T13:42:20;8.80;99.90
48007;DHT22;33771;48.180;11.400;2024-03-23T13:44:45;8.80;99.90
48007;DHT22;33771;48.180;11.400;2024-03-23T13:47:11;8.60;99.90
48007;DHT22;33771;48.180;11.400;2024-03-23T13:49:36;8.30;99.90
48007;DHT22;33771;48.180;11.400;2024-03-23T13:52:02;7.90;99.90
48007;DHT22;33771;48.180;11.400;2024-03-23T13:54:28;7.60;99.90
48007;DHT22;33771;48.180;11.400;2024-03-23T13:56:55;7.40;99.90
48007;DHT22;33771;48.180;11.400;2024-03-23T13:59:21;7.30;99.90
48007;DHT22;33771;48.180;11.400;2024-03-23T14:01:48;7.20;99.90
48007;DHT22;33771;48.180;11.400;2024-03-23T14:04:14;7.20;99.90
48007;DHT22;33771;48.180;11.400;2024-03-23T14:06:44;7.30;99.90
48007;DHT22;33771;48.180;11.400;2024-03-23T14:09:11;7.30;99.90
48007;DHT22;33771;48.180;11.400;2024-03-23T14:11:37;7.30;99.90
48007;DHT22;33771;48.180;11.400;2024-03-23T14:14:03;7.30;99.90
48007;DHT22;33771;48.180;11.400;2024-03-23T14:16:32;7.30;99.90
48007;DHT22;33771;48.180;11.400;2024-03-23T14:18:58;7.30;99.90
48007;DHT22;33771;48.180;11.400;2024-03-23T14:21:24;7.30;99.90
48007;DHT22;33771;48.180;11.400;2024-03-23T14:23:50;7.30;99.90
48007;DHT22;33771;48.180;11.400;2024-03-23T14:26:16;7.30;99.90
48007;DHT22;33771;48.180;11.400;2024-03-23T14:28:41;7.30;99.90
48007;DHT22;33771;48.180;11.400;2024-03-23T14:31:07;7.20;99.90
48007;DHT22;33771;48.180;11.400;2024-03-23T14:33:39;7.20;99.90
48007;DHT22;33771;48.180;11.400;2024-03-23T14:36:12;7.10;99.90
48007;DHT22;33771;48.180;11.400;2024-03-23T14:38:38;7.10;99.90
48007;DHT22;33771;48.180;11.400;2024-03-23T14:41:03;7.00;99.90
48007;DHT22;33771;48.180;11.400;2024-03-23T14:43:30;7.10;99.90
48007;DHT22;33771;48.180;11.400;2024-03-23T14:48:33;7.00;99.90
48007;DHT22;33771;48.180;11.400;2024-03-23T14:51:00;7.00;99.90
48007;DHT22;33771;48.180;11.400;2024-03-23T14:53:26;7.00;99.90
48007;DHT22;33771;48.180;11.400;2024-03-23T14:55:59;6.90;99.90
48007;DHT22;33771;48.180;11.400;2024-03-23T14:58:26;6.90;99.90
48007;DHT22;33771;48.180;11.400;2024-03-23T15:00:51;6.90;99.90
48007;DHT22;33771;48.180;11.400;2024-03-23T15:03:18;6.90;99.90
48007;DHT22;33771;48.180;11.400;2024-03-23T15:06:01;7.00;99.90
48007;DHT22;33771;48.180;11.400;2024-03-23T15:08:28;7.00;99.90
48007;DHT22;33771;48.180;11.400;2024-03-23T15:10:53;6.90;99.90
48007;DHT22;33771;48.180;11.400;2024-03-23T15:13:19;6.90;99.90
48007;DHT22;33771;48.180;11.400;2024-03-23T15:15:44;6.90;99.90
48007;DHT22;33771;48.180;11.400;2024-03-23T15:18:14;6.80;99.90
48007;DHT22;33771;48.180;11.400;2024-03-23T15:21:00;6.70;99.90
48007;DHT22;33771;48.180;11.400;2024-03-23T15:23:33;6.70;99.90
48007;DHT22;33771;48.180;11.400;2024-03-23T15:26:00;6.70;99.90
48007;DHT22;33771;48.180;11.400;2024-03-23T15:28:27;6.60;99.90
48007;DHT22;33771;48.180;11.400;2024-03-23T15:31:03;6.60;99.90
48007;DHT22;33771;48.180;11.400;2024-03-23T15:33:29;6.70;99.90
48007;DHT22;33771;48.180;11.400;2024-03-23T15:36:07;6.70;99.90
48007;DHT22;33771;48.180;11.400;2024-03-23T15:38:32;6.80;99.90
48007;DHT22;33771;48.180;11.400;2024-03-23T15:40:59;6.80;99.90
48007;DHT22;33771;48.180;11.400;2024-03-23T15:43:24;6.80;99.90
48007;DHT22;33771;48.180;11.400;2024-03-23T15:45:54;6.80;99.90
48007;DHT22;33771;48.180;11.400;2024-03-23T15:48:20;6.90;99.90
48007;DHT22;33771;48.180;11.400;2024-03-23T15:50:54;6.90;99.90
48007;DHT22;33771;48.180;11.400;2024-03-23T15:53:20;6.90;99.90
48007;DHT22;33771;48.180;11.400;2024-03-23T15:56:02;6.80;99.90
48007;DHT22;33771;48.180;11.400;2024-03-23T15:58:30;6.80;99.90
48007;DHT22;33771;48.180;11.400;2024-03-23T16:00:56;6.90;99.90
48007;DHT22;33771;48.180;11.400;2024-03-23T16:03:22;6.90;99.90
48007;DHT22;33771;48.180;11.400;2024-03-23T16:05:55;6.80;99.90
48007;DHT22;33771;48.180;11.400;2024-03-23T16:08:21;6.80;99.90
48007;DHT22;33771;48.180;11.400;2024-03-23T16:10:48;6.80;99.90
48007;DHT22;33771;48.180;11.400;2024-03-23T16:13:16;6.70;99.90
48007;DHT22;33771;48.180;11.400;2024-03-23T16:15:43;6.60;99.90
48007;DHT22;33771;48.180;11.400;2024-03-23T16:18:09;6.60;99.90
48007;DHT22;33771;48.180;11.400;2024-03-23T16:20:35;6.50;99.90
48007;DHT22;33771;48.180;11.400;2024-03-23T16:23:01;6.50;99.90
48007;DHT22;33771;48.180;11.400;2024-03-23T16:25:26;6.50;99.90
48007;DHT22;33771;48.180;11.400;2024-03-23T16:27:53;6.40;99.90
48007;DHT22;33771;48.180;11.400;2024-03-23T16:30:18;6.40;99.90
48007;DHT22;33771;48.180;11.400;2024-03-23T16:32:48;6.50;99.90